x

La Have Bank (44150) Wave Buoy

1:00pm - Sun 28th Dec 2014 All times are AST. -4 hours from GMT.

  • Sig Wave height 8.9ft
  • Peak Period 7s
  • Wind
    34mph, 40mph gusts
  • Sea Temp 60°f
  • Air Temp 58°f
  • Sea Pressure 1008.3mb
  • La Have Bank
  • La Have Bank

More Historic Weather Station data

Upgrade to MSW Pro to gain access to the past 30 days of data for over 8000 Wavebouys and Weather Stations around the globe.

Join Pro

Comparision Forecast

View Surf forecast
   
Sun 12/28 1:00pm 9ft 7s 34 40 mph 1008.3mb 60f 58f
12:00pm 8ft 7s 34 40 mph 1009.3mb 59f 57f
11:00am 8.5ft 6s 31 40 mph 1010.9mb 62f 56f
10:00am 8ft 7s 34 40 mph 1012.1mb 59f 56f
9:00am 6ft 5s 34 40 mph 1012.3mb 58f 56f
8:00am 5ft 4s 29 36 mph 1012.4mb 53f 55f
7:00am 4.5ft 4s 27 36 mph 1013.3mb 53f 53f
6:00am 4.5ft 11s 22 27 mph 1014.7mb 53f 51f
5:00am 4.5ft 12s 18 22 mph 1014.8mb 53f 51f
4:00am 4.5ft 6s 16 18 mph 1016.3mb 53f 50f
3:00am 5ft 6s 13 16 mph 1017.1mb 51f 49f
2:00am 5ft 6s 11 13 mph 1017.7mb 51f 47f
1:00am 5ft 6s 11 16 mph 1018.3mb 51f 47f
12:00am 5ft 6s 18 20 mph 1019.3mb 51f 47f
Sat 12/27 11:00pm 5ft 12s 18 20 mph 1019.9mb 51f 47f
10:00pm 5ft 7s 13 16 mph 1019.8mb 51f 46f
9:00pm 5ft 13s 18 22 mph 1019.8mb 51f 46f
8:00pm 6ft 13s 20 25 mph 1020mb 50f 46f
7:00pm 6ft 6s 20 25 mph 1019.5mb 49f 46f
6:00pm 6ft 5s 22 27 mph 1019.3mb 49f 46f
4:00pm 6.5ft 6s 20 22 mph 1018.4mb 47f 46f
3:00pm 6ft 13s 22 25 mph 1018.1mb 47f 45f
2:00pm 6ft 7s 20 25 mph 1017.6mb 47f 45f
1:00pm 6ft 7s 20 25 mph 1017.6mb 47f 45f
12:00pm 6ft 8s 18 22 mph 1018.7mb 48f 45f
11:00am 6ft 8s 13 16 mph 1019.2mb 48f 45f
10:00am 6.5ft 13s 13 16 mph 1019.4mb 49f 45f
9:00am 6ft 14s 11 13 mph 1018.7mb 50f 45f
8:00am 7ft 8s 11 13 mph 1018.2mb 49f 45f
7:00am 7ft 14s 18 20 mph 1018.1mb 49f 46f
6:00am 7.5ft 13s 18 22 mph 1017.6mb 48f 46f
5:00am 7.5ft 8s 18 22 mph 1017.1mb 48f 47f
4:00am 8ft 14s 16 20 mph 1017.2mb 47f 47f
3:00am 8ft 8s 18 22 mph 1017.4mb 47f 46f
2:00am 9.5ft 8s 16 20 mph 1017.2mb 46f 46f
1:00am 9ft 8s 18 22 mph 1016.8mb 46f 46f
12:00am 9ft 9s 20 25 mph 1017.3mb 46f 46f
Fri 12/26 11:00pm 9ft 9s 18 22 mph 1017.4mb 47f 46f
10:00pm 9.5ft 8s 16 18 mph 1017.3mb 47f 45f
9:00pm 10ft 8s 18 22 mph 1017.4mb 47f 46f
8:00pm 10.5ft 10s 22 29 mph 1017.2mb 48f 46f
7:00pm 11ft 9s 27 31 mph 1017.1mb 49f 46f
6:00pm 11ft 9s 27 36 mph 1016.3mb 49f 46f
5:00pm 11.5ft 9s 27 34 mph 1015.8mb 49f 46f
4:00pm 11ft 9s 27 31 mph 1015.4mb 48f 46f
3:00pm 12ft 9s 25 31 mph 1015.2mb 47f 46f
2:00pm 11.5ft 9s 25 31 mph 1014.9mb 47f 46f
1:00pm 11.5ft 9s 22 29 mph 1014.7mb 46f 46f
12:00pm 11.5ft 10s 20 25 mph 1015.1mb 46f 46f
11:00am 11.5ft 9s 25 29 mph 1015.3mb 46f 46f
10:00am 12ft 9s 22 27 mph 1015.5mb 46f 46f
9:00am 11ft 9s 25 31 mph 1014.6mb 47f 46f
8:00am 10.5ft 9s 25 31 mph 1014mb 47f 46f
7:00am 10ft 9s 22 27 mph 1012.9mb 47f 47f
6:00am 10ft 8s 22 29 mph 1012.6mb 47f 47f
5:00am 10ft 9s 25 31 mph 1011.8mb 47f 47f
4:00am 11ft 8s 25 31 mph 1010.9mb 47f 47f
3:00am 10.5ft 7s 25 29 mph 1010.6mb 47f 48f
2:00am 10ft 9s 25 29 mph 1009.6mb 47f 48f
1:00am 9.5ft 8s 25 29 mph 1008.7mb 47f 48f
12:00am  -   -  25
mph
- - -
Thu 12/25 11:00pm 10ft 9s 25 31 mph 1007.4mb 46f 49f
10:00pm 10ft 8s 25 29 mph 1006.7mb 46f 49f
9:00pm 11.5ft 10s 25 31 mph 1006.1mb 46f 49f
8:00pm 11ft 10s 27 31 mph 1005.2mb 47f 50f
7:00pm 12ft 9s 29 36 mph 1003.4mb 49f 54f
6:00pm 10.5ft 8s 27 31 mph 1002.1mb 65f 60f
5:00pm 11ft 8s 31 38 mph 1002.4mb 63f 59f
4:00pm  -   -  29
mph
- - -
3:00pm 11ft 8s 20 27 mph 1002.6mb 55f 58f
2:00pm 11.5ft 7s 31 38 mph 1001.9mb 53f 67f
1:00pm 11ft 7s 31 45 mph 1003mb 51f 67f
12:00pm 10ft 7s 29 36 mph 1004.5mb 51f 67f
11:00am 10.5ft 8s 27 34 mph 1006.3mb 51f 66f
10:00am 9.5ft 7s 27 34 mph 1006.8mb 50f 66f
9:00am 9ft 8s 27 34 mph 1007.2mb 51f 66f
8:00am 9ft 8s 27 31 mph 1008mb 53f 66f
7:00am 9ft 8s 25 31 mph 1008.7mb 55f 67f
6:00am 9ft 8s 22 27 mph 1009.7mb 66f 67f
5:00am 9ft 8s 22 34 mph 1010.3mb 66f 67f
4:00am 8.5ft 8s 25 31 mph 1010.6mb 66f 67f
3:00am 8ft 8s 27 31 mph 1011.3mb 66f 67f
2:00am 8ft 8s 27 31 mph 1011.9mb 66f 67f
1:00am 7.5ft 8s 22 27 mph 1012.5mb 66f 66f
12:00am 7ft 9s 18 22 mph 1013.6mb 66f 67f
Wed 12/24 11:00pm 8ft 8s 18 20 mph 1014.5mb 66f 67f
10:00pm 7ft 8s 18 22 mph 1014.9mb 65f 66f
9:00pm 7ft 7s 20 25 mph 1015mb 65f 65f
8:00pm 8ft 6s 20 25 mph 1015.5mb 64f 64f
7:00pm 7.5ft 7s 27 31 mph 1015.8mb 65f 63f